createdAt,value
2023-04-30T00:00:28.445Z,101434.06
2023-04-30T00:02:55.379Z,101439.09
2023-04-30T00:05:21.885Z,101437.81
2023-04-30T00:07:48.301Z,101438.34
2023-04-30T00:10:14.731Z,101438.66
2023-04-30T00:12:41.186Z,101435.25
2023-04-30T00:15:08.052Z,101442.00
2023-04-30T00:17:34.518Z,101435.38
2023-04-30T00:20:01.223Z,101448.25
2023-04-30T00:22:27.714Z,101448.25
2023-04-30T00:24:54.138Z,101450.00
2023-04-30T00:27:21.086Z,101457.25
2023-04-30T00:29:47.492Z,101461.00
2023-04-30T00:32:14.058Z,101463.69
2023-04-30T00:34:41.136Z,101463.06
2023-04-30T00:37:07.564Z,101460.53
2023-04-30T00:39:33.937Z,101461.63
2023-04-30T00:42:00.880Z,101463.13
2023-04-30T00:44:27.294Z,101470.19
2023-04-30T00:46:53.725Z,101464.59
2023-04-30T00:49:20.977Z,101469.13
2023-04-30T00:51:47.859Z,101470.28
2023-04-30T00:54:14.591Z,101473.00
2023-04-30T00:56:41.373Z,101468.84
2023-04-30T00:59:08.384Z,101471.91
2023-04-30T01:01:35.059Z,101466.44
2023-04-30T01:04:01.689Z,101478.69
2023-04-30T01:06:28.475Z,101480.47
2023-04-30T01:08:57.168Z,101476.94
2023-04-30T01:11:47.794Z,101480.34
2023-04-30T01:14:25.126Z,101486.47
2023-04-30T01:17:04.661Z,101485.94
2023-04-30T01:19:36.952Z,101487.06
2023-04-30T01:22:04.879Z,101490.13
2023-04-30T01:24:59.663Z,101497.22
2023-04-30T01:27:47.782Z,101496.91
2023-04-30T01:30:15.715Z,101500.56
2023-04-30T01:32:42.201Z,101503.47
2023-04-30T01:35:09.031Z,101503.31
2023-04-30T01:37:52.584Z,101499.56
2023-04-30T01:40:35.292Z,101511.25
2023-04-30T01:43:11.144Z,101500.00
2023-04-30T01:46:23.644Z,101511.25
2023-04-30T01:49:13.624Z,101517.50
2023-04-30T01:51:42.452Z,101521.19
2023-04-30T01:54:47.542Z,101522.78
2023-04-30T01:57:21.566Z,101527.81
2023-04-30T01:59:48.205Z,101522.16
2023-04-30T02:02:14.583Z,101528.31
2023-04-30T02:04:41.280Z,101526.09
2023-04-30T02:07:08.037Z,101532.50
2023-04-30T02:09:34.423Z,101537.97
2023-04-30T02:12:00.950Z,101541.13
2023-04-30T02:14:27.452Z,101545.91
2023-04-30T02:16:53.867Z,101543.13
2023-04-30T02:19:20.240Z,101551.19
2023-04-30T02:21:46.644Z,101549.09
2023-04-30T02:24:13.087Z,101549.75
2023-04-30T02:26:39.468Z,101553.91
2023-04-30T02:29:05.885Z,101549.88
2023-04-30T02:31:32.353Z,101553.72
2023-04-30T02:33:58.866Z,101552.72
2023-04-30T02:36:25.349Z,101554.94
2023-04-30T02:38:51.716Z,101559.84
2023-04-30T02:41:18.138Z,101563.25
2023-04-30T02:43:44.582Z,101554.69
2023-04-30T02:46:10.983Z,101557.53
2023-04-30T02:48:37.393Z,101563.59
2023-04-30T02:51:04.607Z,101566.66
2023-04-30T02:53:31.144Z,101565.88
2023-04-30T02:55:59.062Z,101564.53
2023-04-30T02:58:25.537Z,101567.25
2023-04-30T03:00:51.995Z,101568.78
2023-04-30T03:03:18.464Z,101568.81
2023-04-30T03:05:44.937Z,101572.13
2023-04-30T03:08:11.369Z,101568.31
2023-04-30T03:10:37.740Z,101564.97
2023-04-30T03:13:04.191Z,101569.19
2023-04-30T03:15:33.513Z,101572.56
2023-04-30T03:18:00.047Z,101583.22
2023-04-30T03:20:26.507Z,101577.56
2023-04-30T03:22:52.911Z,101586.88
2023-04-30T03:25:19.378Z,101588.47
2023-04-30T03:27:45.793Z,101590.50
2023-04-30T03:30:12.195Z,101588.19
2023-04-30T03:32:38.925Z,101591.22
2023-04-30T03:35:06.276Z,101591.47
2023-04-30T03:37:32.670Z,101595.84
2023-04-30T03:39:59.052Z,101604.31
2023-04-30T03:42:25.496Z,101604.00
2023-04-30T03:44:51.887Z,101598.97
2023-04-30T03:47:18.394Z,101608.81
2023-04-30T03:49:44.942Z,101604.81
2023-04-30T03:52:11.395Z,101611.56
2023-04-30T03:54:37.914Z,101612.25
2023-04-30T03:57:04.485Z,101611.06
2023-04-30T03:59:32.350Z,101612.66
2023-04-30T04:02:01.111Z,101611.84
2023-04-30T04:04:27.796Z,101614.88
2023-04-30T04:06:54.307Z,101612.47
2023-04-30T04:09:20.685Z,101612.84
2023-04-30T04:11:47.136Z,101614.28
2023-04-30T04:14:13.541Z,101621.63
2023-04-30T04:16:40.171Z,101636.44
2023-04-30T04:19:06.744Z,101636.34
2023-04-30T04:21:33.406Z,101631.09
2023-04-30T04:23:59.786Z,101635.22
2023-04-30T04:26:26.258Z,101640.06
2023-04-30T04:28:52.867Z,101642.19
2023-04-30T04:31:20.566Z,101639.84
2023-04-30T04:33:47.075Z,101653.91
2023-04-30T04:36:13.471Z,101659.72
2023-04-30T04:38:39.837Z,101662.97
2023-04-30T04:41:06.267Z,101663.66
2023-04-30T04:43:32.875Z,101663.88
2023-04-30T04:45:59.347Z,101663.50
2023-04-30T04:48:26.322Z,101666.22
2023-04-30T04:50:53.000Z,101668.63
2023-04-30T04:53:19.548Z,101673.09
2023-04-30T04:55:45.984Z,101673.91
2023-04-30T04:58:12.477Z,101674.00
2023-04-30T05:00:39.340Z,101678.84
2023-04-30T05:03:05.805Z,101682.88
2023-04-30T05:05:32.465Z,101694.19
2023-04-30T05:07:58.944Z,101694.69
2023-04-30T05:10:25.513Z,101699.00
2023-04-30T05:12:52.002Z,101704.59
2023-04-30T05:15:18.523Z,101709.00
2023-04-30T05:17:45.090Z,101705.28
2023-04-30T05:20:12.644Z,101709.03
2023-04-30T05:22:39.224Z,101719.41
2023-04-30T05:25:06.584Z,101720.72
2023-04-30T05:27:33.060Z,101727.22
2023-04-30T05:29:59.615Z,101727.75
2023-04-30T05:32:27.659Z,101724.00
2023-04-30T05:34:54.121Z,101727.59
2023-04-30T05:37:22.516Z,101725.31
2023-04-30T05:39:49.159Z,101727.13
2023-04-30T05:42:15.638Z,101729.56
2023-04-30T05:44:42.051Z,101735.63
2023-04-30T05:47:08.544Z,101735.50
2023-04-30T05:49:36.173Z,101740.75
2023-04-30T05:52:03.601Z,101754.09
2023-04-30T05:54:31.046Z,101753.50
2023-04-30T05:56:57.834Z,101749.53
2023-04-30T05:59:24.409Z,101752.78
2023-04-30T06:01:50.999Z,101752.59
2023-04-30T06:04:17.599Z,101762.16
2023-04-30T06:06:44.146Z,101759.44
2023-04-30T06:09:10.674Z,101754.00
2023-04-30T06:11:42.249Z,101764.84
2023-04-30T06:14:10.210Z,101764.84
2023-04-30T06:16:36.702Z,101768.50
2023-04-30T06:19:03.258Z,101765.88
2023-04-30T06:21:29.672Z,101769.28
2023-04-30T06:23:56.108Z,101766.28
2023-04-30T06:26:22.571Z,101777.63
2023-04-30T06:28:48.984Z,101787.75
2023-04-30T06:31:15.555Z,101785.97
2023-04-30T06:33:42.041Z,101792.47
2023-04-30T06:36:08.467Z,101792.81
2023-04-30T06:38:34.863Z,101797.13
2023-04-30T06:41:01.298Z,101795.94
2023-04-30T06:43:27.703Z,101794.19
2023-04-30T06:45:54.188Z,101807.91
2023-04-30T06:48:20.889Z,101815.00
2023-04-30T06:50:47.378Z,101813.25
2023-04-30T06:53:15.011Z,101819.13
2023-04-30T06:55:42.566Z,101806.59
2023-04-30T06:58:08.995Z,101809.09
2023-04-30T07:00:35.956Z,101815.97
2023-04-30T07:03:03.814Z,101813.84
2023-04-30T07:05:31.170Z,101822.31
2023-04-30T07:07:58.522Z,101826.19
2023-04-30T07:10:25.138Z,101816.09
2023-04-30T07:12:51.696Z,101827.75
2023-04-30T07:15:18.134Z,101824.75
2023-04-30T07:17:44.753Z,101847.78
2023-04-30T07:20:14.408Z,101833.41
2023-04-30T07:22:44.375Z,101850.41
2023-04-30T07:25:11.561Z,101847.97
2023-04-30T07:27:38.429Z,101856.69
2023-04-30T07:30:05.545Z,101858.63
2023-04-30T07:32:32.074Z,101847.16
2023-04-30T07:34:58.473Z,101857.94
2023-04-30T07:37:24.940Z,101853.94
2023-04-30T07:39:51.342Z,101856.66
2023-04-30T07:42:17.728Z,101852.81
2023-04-30T07:44:44.255Z,101852.97
2023-04-30T07:47:10.706Z,101858.91
2023-04-30T07:49:37.182Z,101854.56
2023-04-30T07:52:03.757Z,101865.69
2023-04-30T07:54:30.221Z,101867.59
2023-04-30T07:56:56.743Z,101878.44
2023-04-30T07:59:24.429Z,101868.81
2023-04-30T08:01:51.621Z,101867.53
2023-04-30T08:04:18.093Z,101873.63
2023-04-30T08:06:44.742Z,101874.19
2023-04-30T08:09:11.314Z,101881.28
2023-04-30T08:11:37.703Z,101888.94
2023-04-30T08:14:04.641Z,101876.94
2023-04-30T08:16:31.086Z,101869.72
2023-04-30T08:18:57.598Z,101891.28
2023-04-30T08:21:24.243Z,101892.47
2023-04-30T08:23:51.231Z,101881.03
2023-04-30T08:26:17.619Z,101891.50
2023-04-30T08:28:44.110Z,101889.84
2023-04-30T08:31:10.655Z,101905.91
2023-04-30T08:33:37.094Z,101906.16
2023-04-30T08:36:03.726Z,101900.16
2023-04-30T08:38:30.134Z,101899.91
2023-04-30T08:41:16.893Z,101916.19
2023-04-30T08:43:46.560Z,101913.75
2023-04-30T08:46:13.836Z,101925.84
2023-04-30T08:48:41.497Z,101928.91
2023-04-30T08:51:08.327Z,101917.78
2023-04-30T08:53:36.912Z,101908.28
2023-04-30T08:56:04.309Z,101911.16
2023-04-30T08:58:31.091Z,101926.44
2023-04-30T09:00:59.446Z,101918.72
2023-04-30T09:03:26.544Z,101919.41
2023-04-30T09:05:52.957Z,101917.28
2023-04-30T09:08:39.988Z,101911.00
2023-04-30T09:11:27.528Z,101937.16
2023-04-30T09:14:01.709Z,101931.44
2023-04-30T09:16:33.523Z,101920.69
2023-04-30T09:19:00.336Z,101936.50
2023-04-30T09:21:34.153Z,101928.47
2023-04-30T09:24:03.074Z,101935.38
2023-04-30T09:26:34.498Z,101945.56
2023-04-30T09:29:07.422Z,101952.13
2023-04-30T09:31:35.989Z,101959.97
2023-04-30T09:34:03.321Z,101962.47
2023-04-30T09:36:31.446Z,101960.94
2023-04-30T09:39:08.980Z,101957.69
2023-04-30T09:41:36.831Z,101966.63
2023-04-30T09:44:04.027Z,101956.25
2023-04-30T09:46:32.116Z,101961.22
2023-04-30T09:49:00.253Z,101950.03
2023-04-30T09:51:27.081Z,101959.44
2023-04-30T09:53:54.724Z,101963.78
2023-04-30T09:56:23.863Z,101945.78
2023-04-30T09:58:55.635Z,101954.47
2023-04-30T10:01:22.819Z,101957.50
2023-04-30T10:03:50.111Z,101948.81
2023-04-30T10:06:18.482Z,101946.00
2023-04-30T10:08:53.330Z,101945.53
2023-04-30T10:11:23.578Z,101939.50
2023-04-30T10:14:02.325Z,101939.63
2023-04-30T10:16:43.755Z,101939.16
2023-04-30T10:19:17.151Z,101943.25
2023-04-30T10:21:46.113Z,101945.41
2023-04-30T10:24:14.567Z,101938.69
2023-04-30T10:26:41.527Z,101927.78
2023-04-30T10:29:09.704Z,101926.81
2023-04-30T10:31:37.554Z,101923.69
2023-04-30T10:34:33.397Z,101917.69
2023-04-30T10:37:05.783Z,101919.03
2023-04-30T10:39:32.969Z,101907.56
2023-04-30T10:42:04.650Z,101915.91
2023-04-30T10:44:37.150Z,101902.44
2023-04-30T10:47:04.746Z,101923.28
2023-04-30T10:49:31.562Z,101911.13
2023-04-30T10:52:03.613Z,101913.69
2023-04-30T10:54:35.824Z,101917.34
2023-04-30T10:57:14.531Z,101914.69
2023-04-30T11:00:09.346Z,101911.47
2023-04-30T11:02:40.780Z,101905.81
2023-04-30T11:05:13.371Z,101898.78
2023-04-30T11:08:01.226Z,101912.13
2023-04-30T11:10:33.457Z,101901.06
2023-04-30T11:13:04.878Z,101899.91
2023-04-30T11:15:49.476Z,101889.81
2023-04-30T11:18:16.264Z,101882.75
2023-04-30T11:20:50.957Z,101883.97
2023-04-30T11:23:37.853Z,101890.41
2023-04-30T11:26:07.260Z,101887.31
2023-04-30T11:28:37.579Z,101879.59
2023-04-30T11:31:04.426Z,101884.56
2023-04-30T11:33:32.609Z,101876.72
2023-04-30T11:36:01.224Z,101888.88
2023-04-30T11:38:46.189Z,101861.38
2023-04-30T11:41:12.957Z,101874.25
2023-04-30T11:43:39.426Z,101872.00
2023-04-30T11:46:15.539Z,101881.59
2023-04-30T11:48:44.496Z,101886.41
2023-04-30T11:51:19.296Z,101885.72
2023-04-30T11:53:50.892Z,101887.59
2023-04-30T11:56:22.065Z,101893.38
2023-04-30T11:58:50.110Z,101884.19
2023-04-30T12:01:17.296Z,101878.69
2023-04-30T12:03:49.126Z,101870.75
2023-04-30T12:06:27.460Z,101882.94
2023-04-30T12:08:57.493Z,101890.28
2023-04-30T12:11:32.061Z,101879.50
2023-04-30T12:14:07.339Z,101885.91
2023-04-30T12:16:54.525Z,101886.28
2023-04-30T12:19:25.249Z,101873.06
2023-04-30T12:21:54.851Z,101883.50
2023-04-30T12:24:21.514Z,101867.69
2023-04-30T12:26:48.035Z,101864.69
2023-04-30T12:29:18.841Z,101875.44
2023-04-30T12:31:48.973Z,101875.22
2023-04-30T12:34:15.925Z,101877.06
2023-04-30T12:36:45.434Z,101867.88
2023-04-30T12:39:15.820Z,101866.94
2023-04-30T12:41:47.685Z,101868.34
2023-04-30T12:44:25.951Z,101849.75
2023-04-30T12:46:56.495Z,101860.66
2023-04-30T12:49:35.329Z,101855.72
2023-04-30T12:52:12.547Z,101846.88
2023-04-30T12:54:39.927Z,101843.53
2023-04-30T12:57:09.077Z,101841.50
2023-04-30T12:59:39.279Z,101846.75
2023-04-30T13:02:09.954Z,101852.50
2023-04-30T13:04:37.005Z,101851.13
2023-04-30T13:07:04.572Z,101830.69
2023-04-30T13:09:33.731Z,101846.91
2023-04-30T13:12:00.121Z,101844.16
2023-04-30T13:14:27.052Z,101832.78
2023-04-30T13:16:53.807Z,101840.22
2023-04-30T13:19:20.539Z,101824.03
2023-04-30T13:21:47.116Z,101833.44
2023-04-30T13:24:13.653Z,101828.41
2023-04-30T13:26:40.479Z,101825.53
2023-04-30T13:29:07.229Z,101815.34
2023-04-30T13:31:33.878Z,101815.88
2023-04-30T13:34:00.809Z,101829.53
2023-04-30T13:36:27.262Z,101808.66
2023-04-30T13:38:53.869Z,101823.22
2023-04-30T13:41:21.948Z,101808.44
2023-04-30T13:43:49.269Z,101813.38
2023-04-30T13:46:16.610Z,101808.19
2023-04-30T13:48:43.195Z,101820.69
2023-04-30T13:51:09.640Z,101807.31
2023-04-30T13:53:37.247Z,101813.81
2023-04-30T13:56:03.810Z,101802.31
2023-04-30T13:58:30.197Z,101804.25
2023-04-30T14:00:56.666Z,101809.59
2023-04-30T14:03:23.292Z,101818.94
2023-04-30T14:05:49.912Z,101801.63
2023-04-30T14:08:16.421Z,101800.31
2023-04-30T14:10:42.940Z,101801.63
2023-04-30T14:13:09.346Z,101802.72
2023-04-30T14:15:35.905Z,101801.38
2023-04-30T14:18:02.400Z,101793.81
2023-04-30T14:20:28.830Z,101790.81
2023-04-30T14:22:55.409Z,101782.91
2023-04-30T14:25:21.887Z,101786.13
2023-04-30T14:27:48.294Z,101783.03
2023-04-30T14:30:14.802Z,101784.81
2023-04-30T14:32:41.493Z,101776.06
2023-04-30T14:35:08.418Z,101781.00
2023-04-30T14:37:34.877Z,101777.72
2023-04-30T14:40:01.957Z,101773.41
2023-04-30T14:42:28.521Z,101765.38
2023-04-30T14:44:54.968Z,101784.72
2023-04-30T14:47:22.522Z,101781.00
2023-04-30T14:49:51.940Z,101783.75
2023-04-30T14:52:18.550Z,101777.69
2023-04-30T14:54:45.120Z,101766.47
2023-04-30T14:57:11.599Z,101767.44
2023-04-30T14:59:39.974Z,101765.66
2023-04-30T15:02:07.072Z,101765.00
2023-04-30T15:04:33.640Z,101759.25
2023-04-30T15:07:00.788Z,101759.03
2023-04-30T15:09:27.656Z,101758.09
2023-04-30T15:11:54.174Z,101747.41
2023-04-30T15:14:20.632Z,101744.97
2023-04-30T15:16:47.077Z,101746.41
2023-04-30T15:19:13.497Z,101743.19
2023-04-30T15:21:40.053Z,101740.53
2023-04-30T15:24:07.102Z,101740.59
2023-04-30T15:26:33.551Z,101750.38
2023-04-30T15:29:00.498Z,101751.28
2023-04-30T15:31:27.199Z,101742.59
2023-04-30T15:33:53.633Z,101752.22
2023-04-30T15:36:23.210Z,101755.19
2023-04-30T15:38:49.649Z,101754.94
2023-04-30T15:41:16.129Z,101748.16
2023-04-30T15:43:42.545Z,101753.78
2023-04-30T15:46:09.164Z,101754.94
2023-04-30T15:48:35.667Z,101744.16
2023-04-30T15:51:02.172Z,101738.19
2023-04-30T15:53:28.589Z,101732.84
2023-04-30T15:55:56.772Z,101731.94
2023-04-30T15:58:23.238Z,101733.88
2023-04-30T16:00:49.644Z,101730.22
2023-04-30T16:03:16.398Z,101729.88
2023-04-30T16:05:43.695Z,101728.19
2023-04-30T16:08:10.451Z,101730.22
2023-04-30T16:10:37.436Z,101725.56
2023-04-30T16:13:03.928Z,101729.53
2023-04-30T16:15:30.572Z,101718.84
2023-04-30T16:17:57.341Z,101719.84
2023-04-30T16:20:24.246Z,101721.53
2023-04-30T16:22:51.095Z,101720.19
2023-04-30T16:25:17.487Z,101729.81
2023-04-30T16:27:44.258Z,101722.25
2023-04-30T16:30:11.160Z,101722.34
2023-04-30T16:32:37.886Z,101726.41
2023-04-30T16:35:04.599Z,101724.63
2023-04-30T16:37:31.069Z,101717.50
2023-04-30T16:39:57.822Z,101717.50
2023-04-30T16:42:24.705Z,101719.00
2023-04-30T16:44:51.126Z,101708.22
2023-04-30T16:47:19.008Z,101708.66
2023-04-30T16:49:45.455Z,101707.91
2023-04-30T16:52:12.513Z,101706.97
2023-04-30T16:54:38.911Z,101702.63
2023-04-30T16:57:05.413Z,101701.91
2023-04-30T16:59:31.862Z,101700.22
2023-04-30T17:02:00.485Z,101689.59
2023-04-30T17:04:27.249Z,101690.94
2023-04-30T17:06:53.754Z,101691.66
2023-04-30T17:09:20.362Z,101696.09
2023-04-30T17:11:47.030Z,101694.75
2023-04-30T17:14:13.418Z,101683.88
2023-04-30T17:16:39.865Z,101684.06
2023-04-30T17:19:07.638Z,101688.91
2023-04-30T17:21:34.211Z,101684.44
2023-04-30T17:24:01.594Z,101687.63
2023-04-30T17:26:28.075Z,101682.94
2023-04-30T17:28:54.525Z,101687.63
2023-04-30T17:31:21.031Z,101688.59
2023-04-30T17:33:48.470Z,101687.25
2023-04-30T17:36:15.124Z,101686.44
2023-04-30T17:38:41.898Z,101691.13
2023-04-30T17:41:08.383Z,101687.50
2023-04-30T17:43:34.834Z,101692.66
2023-04-30T17:46:01.726Z,101686.16
2023-04-30T17:48:28.294Z,101699.34
2023-04-30T17:50:54.958Z,101690.44
2023-04-30T17:53:21.378Z,101691.44
2023-04-30T17:55:47.836Z,101685.50
2023-04-30T17:58:14.365Z,101688.50
2023-04-30T18:00:44.915Z,101689.75
2023-04-30T18:03:11.565Z,101684.81
2023-04-30T18:05:39.478Z,101690.25
2023-04-30T18:08:06.629Z,101688.69
2023-04-30T18:10:33.067Z,101681.31
2023-04-30T18:12:59.606Z,101687.72
2023-04-30T18:15:27.011Z,101680.00
2023-04-30T18:17:54.212Z,101678.50
2023-04-30T18:20:21.985Z,101683.31
2023-04-30T18:22:48.498Z,101674.44
2023-04-30T18:25:17.073Z,101667.69
2023-04-30T18:27:43.801Z,101668.38
2023-04-30T18:30:11.644Z,101666.72
2023-04-30T18:32:38.571Z,101674.09
2023-04-30T18:35:05.489Z,101665.16
2023-04-30T18:37:31.878Z,101660.75
2023-04-30T18:39:58.478Z,101650.84
2023-04-30T18:42:25.017Z,101643.66
2023-04-30T18:44:51.441Z,101646.16
2023-04-30T18:47:18.032Z,101647.47
2023-04-30T18:49:45.459Z,101647.34
2023-04-30T18:52:12.149Z,101644.63
2023-04-30T18:54:38.637Z,101641.75
2023-04-30T18:57:05.791Z,101641.56
2023-04-30T18:59:32.293Z,101646.25
2023-04-30T19:01:59.147Z,101644.78
2023-04-30T19:04:26.318Z,101646.03
2023-04-30T19:06:54.964Z,101642.34
2023-04-30T19:09:21.571Z,101642.31
2023-04-30T19:11:48.888Z,101648.56
2023-04-30T19:14:15.304Z,101644.88
2023-04-30T19:16:41.788Z,101641.91
2023-04-30T19:19:08.285Z,101646.25
2023-04-30T19:21:36.259Z,101645.22
2023-04-30T19:24:03.547Z,101645.88
2023-04-30T19:26:34.083Z,101647.91
2023-04-30T19:29:00.719Z,101649.03
2023-04-30T19:31:27.311Z,101643.66
2023-04-30T19:33:53.801Z,101641.56
2023-04-30T19:36:20.280Z,101640.84
2023-04-30T19:38:46.844Z,101640.13
2023-04-30T19:41:13.427Z,101636.44
2023-04-30T19:43:39.912Z,101633.81
2023-04-30T19:46:06.407Z,101631.91
2023-04-30T19:48:32.968Z,101631.34
2023-04-30T19:51:02.379Z,101638.50
2023-04-30T19:53:29.145Z,101629.13
2023-04-30T19:55:55.684Z,101634.31
2023-04-30T19:58:22.190Z,101628.97
2023-04-30T20:00:48.760Z,101623.53
2023-04-30T20:03:16.682Z,101627.09
2023-04-30T20:05:44.958Z,101625.00
2023-04-30T20:08:11.581Z,101630.00
2023-04-30T20:10:38.650Z,101632.94
2023-04-30T20:13:06.206Z,101630.09
2023-04-30T20:15:33.082Z,101634.16
2023-04-30T20:18:01.139Z,101627.38
2023-04-30T20:20:28.983Z,101631.22
2023-04-30T20:22:56.118Z,101630.72
2023-04-30T20:25:25.382Z,101636.91
2023-04-30T20:27:51.991Z,101636.66
2023-04-30T20:30:18.558Z,101639.19
2023-04-30T20:32:45.234Z,101634.25
2023-04-30T20:35:11.697Z,101625.47
2023-04-30T20:37:38.114Z,101632.56
2023-04-30T20:40:07.676Z,101637.91
2023-04-30T20:42:34.159Z,101634.06
2023-04-30T20:45:01.920Z,101639.84
2023-04-30T20:47:29.538Z,101626.28
2023-04-30T20:49:57.795Z,101631.13
2023-04-30T20:52:24.557Z,101637.75
2023-04-30T20:54:51.110Z,101626.97
2023-04-30T20:57:17.511Z,101632.91
2023-04-30T20:59:44.828Z,101627.38
2023-04-30T21:02:11.758Z,101626.25
2023-04-30T21:04:38.295Z,101629.63
2023-04-30T21:07:04.784Z,101635.59
2023-04-30T21:09:32.691Z,101636.44
2023-04-30T21:11:59.431Z,101639.50
2023-04-30T21:14:26.060Z,101640.94
2023-04-30T21:16:52.567Z,101642.56
2023-04-30T21:19:19.006Z,101638.72
2023-04-30T21:21:45.559Z,101642.88
2023-04-30T21:24:12.035Z,101648.06
2023-04-30T21:26:38.471Z,101652.59
2023-04-30T21:29:05.100Z,101650.19
2023-04-30T21:31:31.814Z,101648.25
2023-04-30T21:33:58.501Z,101650.78
2023-04-30T21:36:25.041Z,101648.66
2023-04-30T21:38:51.633Z,101640.91
2023-04-30T21:41:18.326Z,101644.91
2023-04-30T21:43:44.781Z,101649.44
2023-04-30T21:46:13.230Z,101643.00
2023-04-30T21:48:39.707Z,101642.09
2023-04-30T21:51:14.962Z,101632.28
2023-04-30T21:53:42.257Z,101640.47
2023-04-30T21:56:09.935Z,101633.56
2023-04-30T21:58:36.776Z,101642.38
2023-04-30T22:01:04.509Z,101637.06
2023-04-30T22:03:35.071Z,101637.97
2023-04-30T22:06:01.899Z,101638.03
2023-04-30T22:08:28.690Z,101640.81
2023-04-30T22:10:58.320Z,101634.94
2023-04-30T22:13:28.581Z,101635.75
2023-04-30T22:15:55.876Z,101631.69
2023-04-30T22:18:24.344Z,101631.91
2023-04-30T22:20:51.947Z,101622.25
2023-04-30T22:23:21.106Z,101624.19
2023-04-30T22:25:47.734Z,101612.38
2023-04-30T22:28:16.805Z,101613.47
2023-04-30T22:30:43.394Z,101605.31
2023-04-30T22:33:09.971Z,101611.16
2023-04-30T22:35:38.620Z,101610.34
2023-04-30T22:38:06.105Z,101601.75
2023-04-30T22:40:41.819Z,101615.22
2023-04-30T22:43:09.408Z,101613.88
2023-04-30T22:45:40.267Z,101609.56
2023-04-30T22:48:09.630Z,101615.59
2023-04-30T22:50:36.715Z,101612.97
2023-04-30T22:53:03.323Z,101605.47
2023-04-30T22:55:31.908Z,101608.06
2023-04-30T22:58:01.760Z,101598.06
2023-04-30T23:00:28.643Z,101595.44
2023-04-30T23:02:55.545Z,101598.75
2023-04-30T23:05:22.073Z,101598.38
2023-04-30T23:07:49.382Z,101598.38
2023-04-30T23:10:16.558Z,101596.13
2023-04-30T23:12:43.176Z,101594.44
2023-04-30T23:15:10.050Z,101592.69
2023-04-30T23:17:36.563Z,101595.97
2023-04-30T23:20:04.476Z,101598.31
2023-04-30T23:22:31.546Z,101591.25
2023-04-30T23:24:58.024Z,101593.38
2023-04-30T23:27:24.611Z,101587.03
2023-04-30T23:29:51.171Z,101586.34
2023-04-30T23:32:17.693Z,101585.66
2023-04-30T23:34:44.145Z,101589.91
2023-04-30T23:37:10.535Z,101581.22
2023-04-30T23:39:36.999Z,101577.06
2023-04-30T23:42:03.432Z,101570.53
2023-04-30T23:44:32.149Z,101564.47
2023-04-30T23:47:00.791Z,101565.56
2023-04-30T23:49:27.342Z,101571.75
2023-04-30T23:51:53.911Z,101572.84
2023-04-30T23:54:20.850Z,101569.22
2023-04-30T23:56:47.257Z,101562.34
2023-04-30T23:59:13.835Z,101566.69
